sensor_id;sensor_type;location;lat;lon;timestamp;P1;P2;P0
57289;PMS5003;43523;53.022;-1.178;2023-04-06T00:00:06;29;26;
57289;PMS5003;43523;53.022;-1.178;2023-04-06T00:01:09;40;34;
57289;PMS5003;43523;53.022;-1.178;2023-04-06T00:02:12;28;24;
57289;PMS5003;43523;53.022;-1.178;2023-04-06T00:03:14;38;29;
57289;PMS5003;43523;53.022;-1.178;2023-04-06T00:04:18;29;24;
57289;PMS5003;43523;53.022;-1.178;2023-04-06T00:05:20;32;29;
57289;PMS5003;43523;53.022;-1.178;2023-04-06T00:06:23;33;27;
57289;PMS5003;43523;53.022;-1.178;2023-04-06T00:07:25;37;28;
57289;PMS5003;43523;53.022;-1.178;2023-04-06T00:08:27;29;26;
57289;PMS5003;43523;53.022;-1.178;2023-04-06T00:09:29;28;25;
57289;PMS5003;43523;53.022;-1.178;2023-04-06T00:10:31;27;27;
57289;PMS5003;43523;53.022;-1.178;2023-04-06T00:11:34;32;30;
57289;PMS5003;43523;53.022;-1.178;2023-04-06T00:12:36;35;29;
57289;PMS5003;43523;53.022;-1.178;2023-04-06T00:13:37;24;24;
57289;PMS5003;43523;53.022;-1.178;2023-04-06T00:14:40;37;33;
57289;PMS5003;43523;53.022;-1.178;2023-04-06T00:15:43;35;32;
57289;PMS5003;43523;53.022;-1.178;2023-04-06T00:16:45;35;25;
57289;PMS5003;43523;53.022;-1.178;2023-04-06T00:17:47;33;29;
57289;PMS5003;43523;53.022;-1.178;2023-04-06T00:18:49;28;25;
57289;PMS5003;43523;53.022;-1.178;2023-04-06T00:19:51;30;29;
57289;PMS5003;43523;53.022;-1.178;2023-04-06T00:20:54;33;30;
57289;PMS5003;43523;53.022;-1.178;2023-04-06T00:21:56;37;31;
57289;PMS5003;43523;53.022;-1.178;2023-04-06T00:22:58;37;31;
57289;PMS5003;43523;53.022;-1.178;2023-04-06T00:24:01;40;34;
57289;PMS5003;43523;53.022;-1.178;2023-04-06T00:25:03;32;30;
57289;PMS5003;43523;53.022;-1.178;2023-04-06T00:26:07;38;32;
57289;PMS5003;43523;53.022;-1.178;2023-04-06T00:27:10;33;29;
57289;PMS5003;43523;53.022;-1.178;2023-04-06T00:28:13;36;29;
57289;PMS5003;43523;53.022;-1.178;2023-04-06T00:29:15;37;33;
57289;PMS5003;43523;53.022;-1.178;2023-04-06T00:30:18;36;32;
57289;PMS5003;43523;53.022;-1.178;2023-04-06T00:31:20;31;29;
57289;PMS5003;43523;53.022;-1.178;2023-04-06T00:32:22;36;31;
57289;PMS5003;43523;53.022;-1.178;2023-04-06T00:33:24;30;30;
57289;PMS5003;43523;53.022;-1.178;2023-04-06T00:34:26;36;31;
57289;PMS5003;43523;53.022;-1.178;2023-04-06T00:35:28;34;26;
57289;PMS5003;43523;53.022;-1.178;2023-04-06T00:36:31;36;30;
57289;PMS5003;43523;53.022;-1.178;2023-04-06T00:37:34;38;32;
57289;PMS5003;43523;53.022;-1.178;2023-04-06T00:38:36;36;29;
57289;PMS5003;43523;53.022;-1.178;2023-04-06T00:39:39;37;32;
57289;PMS5003;43523;53.022;-1.178;2023-04-06T00:40:41;34;29;
57289;PMS5003;43523;53.022;-1.178;2023-04-06T00:41:45;30;26;
57289;PMS5003;43523;53.022;-1.178;2023-04-06T00:42:51;37;29;
57289;PMS5003;43523;53.022;-1.178;2023-04-06T00:43:54;30;30;
57289;PMS5003;43523;53.022;-1.178;2023-04-06T00:44:57;30;29;
57289;PMS5003;43523;53.022;-1.178;2023-04-06T00:46:01;38;31;
57289;PMS5003;43523;53.022;-1.178;2023-04-06T00:47:03;27;23;
57289;PMS5003;43523;53.022;-1.178;2023-04-06T00:48:06;33;27;
57289;PMS5003;43523;53.022;-1.178;2023-04-06T00:49:09;28;24;
57289;PMS5003;43523;53.022;-1.178;2023-04-06T00:50:12;34;31;
57289;PMS5003;43523;53.022;-1.178;2023-04-06T00:51:14;31;29;
57289;PMS5003;43523;53.022;-1.178;2023-04-06T00:52:16;31;28;
57289;PMS5003;43523;53.022;-1.178;2023-04-06T00:53:19;45;32;
57289;PMS5003;43523;53.022;-1.178;2023-04-06T00:54:21;30;25;
57289;PMS5003;43523;53.022;-1.178;2023-04-06T00:55:24;30;26;
57289;PMS5003;43523;53.022;-1.178;2023-04-06T00:56:26;31;26;
57289;PMS5003;43523;53.022;-1.178;2023-04-06T00:57:31;25;23;
57289;PMS5003;43523;53.022;-1.178;2023-04-06T00:58:34;29;24;
57289;PMS5003;43523;53.022;-1.178;2023-04-06T00:59:36;33;27;
57289;PMS5003;43523;53.022;-1.178;2023-04-06T01:00:38;37;29;
57289;PMS5003;43523;53.022;-1.178;2023-04-06T01:01:40;32;28;
57289;PMS5003;43523;53.022;-1.178;2023-04-06T01:02:43;33;31;
57289;PMS5003;43523;53.022;-1.178;2023-04-06T01:03:46;38;30;
57289;PMS5003;43523;53.022;-1.178;2023-04-06T01:04:50;32;28;
57289;PMS5003;43523;53.022;-1.178;2023-04-06T01:05:53;33;28;
57289;PMS5003;43523;53.022;-1.178;2023-04-06T01:06:55;27;25;
57289;PMS5003;43523;53.022;-1.178;2023-04-06T01:07:57;33;29;
57289;PMS5003;43523;53.022;-1.178;2023-04-06T01:08:59;31;27;
57289;PMS5003;43523;53.022;-1.178;2023-04-06T01:10:02;32;26;
57289;PMS5003;43523;53.022;-1.178;2023-04-06T01:11:05;30;28;
57289;PMS5003;43523;53.022;-1.178;2023-04-06T01:12:08;32;27;
57289;PMS5003;43523;53.022;-1.178;2023-04-06T01:13:10;35;30;
57289;PMS5003;43523;53.022;-1.178;2023-04-06T01:14:12;32;29;
57289;PMS5003;43523;53.022;-1.178;2023-04-06T01:15:15;27;24;
57289;PMS5003;43523;53.022;-1.178;2023-04-06T01:16:18;34;28;
57289;PMS5003;43523;53.022;-1.178;2023-04-06T01:17:20;34;28;
57289;PMS5003;43523;53.022;-1.178;2023-04-06T01:18:26;32;29;
57289;PMS5003;43523;53.022;-1.178;2023-04-06T01:19:29;29;26;
57289;PMS5003;43523;53.022;-1.178;2023-04-06T01:20:31;35;29;
57289;PMS5003;43523;53.022;-1.178;2023-04-06T01:21:33;34;28;
57289;PMS5003;43523;53.022;-1.178;2023-04-06T01:22:35;33;30;
57289;PMS5003;43523;53.022;-1.178;2023-04-06T01:23:37;36;32;
57289;PMS5003;43523;53.022;-1.178;2023-04-06T01:24:40;37;29;
57289;PMS5003;43523;53.022;-1.178;2023-04-06T01:25:43;31;30;
57289;PMS5003;43523;53.022;-1.178;2023-04-06T01:26:46;34;28;
57289;PMS5003;43523;53.022;-1.178;2023-04-06T01:27:48;35;34;
57289;PMS5003;43523;53.022;-1.178;2023-04-06T01:28:50;37;34;
57289;PMS5003;43523;53.022;-1.178;2023-04-06T01:29:59;38;29;
57289;PMS5003;43523;53.022;-1.178;2023-04-06T01:31:02;30;24;
57289;PMS5003;43523;53.022;-1.178;2023-04-06T01:32:04;36;27;
57289;PMS5003;43523;53.022;-1.178;2023-04-06T01:33:07;36;31;
57289;PMS5003;43523;53.022;-1.178;2023-04-06T01:34:09;31;28;
57289;PMS5003;43523;53.022;-1.178;2023-04-06T01:35:12;35;28;
57289;PMS5003;43523;53.022;-1.178;2023-04-06T01:36:15;37;32;
57289;PMS5003;43523;53.022;-1.178;2023-04-06T01:37:17;41;33;
57289;PMS5003;43523;53.022;-1.178;2023-04-06T01:38:19;37;33;
57289;PMS5003;43523;53.022;-1.178;2023-04-06T01:39:21;37;31;
57289;PMS5003;43523;53.022;-1.178;2023-04-06T01:40:23;38;29;
57289;PMS5003;43523;53.022;-1.178;2023-04-06T01:41:26;36;32;
57289;PMS5003;43523;53.022;-1.178;2023-04-06T01:42:28;31;27;
57289;PMS5003;43523;53.022;-1.178;2023-04-06T01:43:31;27;23;
57289;PMS5003;43523;53.022;-1.178;2023-04-06T01:44:33;40;36;
57289;PMS5003;43523;53.022;-1.178;2023-04-06T01:45:36;43;34;
57289;PMS5003;43523;53.022;-1.178;2023-04-06T01:46:39;34;30;
57289;PMS5003;43523;53.022;-1.178;2023-04-06T01:47:41;40;30;
57289;PMS5003;43523;53.022;-1.178;2023-04-06T01:48:45;35;32;
57289;PMS5003;43523;53.022;-1.178;2023-04-06T01:49:47;37;34;
57289;PMS5003;43523;53.022;-1.178;2023-04-06T01:50:49;45;35;
57289;PMS5003;43523;53.022;-1.178;2023-04-06T01:51:52;33;30;
57289;PMS5003;43523;53.022;-1.178;2023-04-06T01:52:54;36;28;
57289;PMS5003;43523;53.022;-1.178;2023-04-06T01:53:56;35;32;
57289;PMS5003;43523;53.022;-1.178;2023-04-06T01:54:59;29;27;
57289;PMS5003;43523;53.022;-1.178;2023-04-06T01:56:01;35;32;
57289;PMS5003;43523;53.022;-1.178;2023-04-06T01:57:03;30;27;
57289;PMS5003;43523;53.022;-1.178;2023-04-06T01:58:06;36;30;
57289;PMS5003;43523;53.022;-1.178;2023-04-06T01:59:08;33;30;
57289;PMS5003;43523;53.022;-1.178;2023-04-06T02:00:11;35;31;
57289;PMS5003;43523;53.022;-1.178;2023-04-06T02:01:13;41;34;
57289;PMS5003;43523;53.022;-1.178;2023-04-06T02:02:16;31;29;
57289;PMS5003;43523;53.022;-1.178;2023-04-06T02:03:18;39;28;
57289;PMS5003;43523;53.022;-1.178;2023-04-06T02:04:21;38;33;
57289;PMS5003;43523;53.022;-1.178;2023-04-06T02:05:25;29;27;
57289;PMS5003;43523;53.022;-1.178;2023-04-06T02:06:27;40;32;
57289;PMS5003;43523;53.022;-1.178;2023-04-06T02:07:29;43;33;
57289;PMS5003;43523;53.022;-1.178;2023-04-06T02:08:31;34;32;
57289;PMS5003;43523;53.022;-1.178;2023-04-06T02:09:34;29;25;
57289;PMS5003;43523;53.022;-1.178;2023-04-06T02:10:37;39;30;
57289;PMS5003;43523;53.022;-1.178;2023-04-06T02:11:39;33;32;
57289;PMS5003;43523;53.022;-1.178;2023-04-06T02:12:43;29;27;
57289;PMS5003;43523;53.022;-1.178;2023-04-06T02:13:45;32;28;
57289;PMS5003;43523;53.022;-1.178;2023-04-06T02:14:47;32;30;
57289;PMS5003;43523;53.022;-1.178;2023-04-06T02:15:49;30;28;
57289;PMS5003;43523;53.022;-1.178;2023-04-06T02:16:52;41;31;
57289;PMS5003;43523;53.022;-1.178;2023-04-06T02:17:54;33;29;
57289;PMS5003;43523;53.022;-1.178;2023-04-06T02:18:57;30;29;
57289;PMS5003;43523;53.022;-1.178;2023-04-06T02:19:59;31;26;
57289;PMS5003;43523;53.022;-1.178;2023-04-06T02:21:02;35;28;
57289;PMS5003;43523;53.022;-1.178;2023-04-06T02:22:04;34;29;
57289;PMS5003;43523;53.022;-1.178;2023-04-06T02:23:06;28;25;
57289;PMS5003;43523;53.022;-1.178;2023-04-06T02:24:09;26;25;
57289;PMS5003;43523;53.022;-1.178;2023-04-06T02:25:11;32;28;
57289;PMS5003;43523;53.022;-1.178;2023-04-06T02:26:13;29;28;
57289;PMS5003;43523;53.022;-1.178;2023-04-06T02:27:16;38;30;
57289;PMS5003;43523;53.022;-1.178;2023-04-06T02:28:19;38;30;
57289;PMS5003;43523;53.022;-1.178;2023-04-06T02:29:21;32;30;
57289;PMS5003;43523;53.022;-1.178;2023-04-06T02:30:24;35;31;
57289;PMS5003;43523;53.022;-1.178;2023-04-06T02:31:26;30;27;
57289;PMS5003;43523;53.022;-1.178;2023-04-06T02:32:29;37;31;
57289;PMS5003;43523;53.022;-1.178;2023-04-06T02:33:31;35;26;
57289;PMS5003;43523;53.022;-1.178;2023-04-06T02:34:33;26;23;
57289;PMS5003;43523;53.022;-1.178;2023-04-06T02:35:35;35;28;
57289;PMS5003;43523;53.022;-1.178;2023-04-06T02:36:38;31;28;
57289;PMS5003;43523;53.022;-1.178;2023-04-06T02:37:39;30;30;
57289;PMS5003;43523;53.022;-1.178;2023-04-06T02:38:41;38;29;
57289;PMS5003;43523;53.022;-1.178;2023-04-06T02:39:45;34;29;
57289;PMS5003;43523;53.022;-1.178;2023-04-06T02:40:48;33;27;
57289;PMS5003;43523;53.022;-1.178;2023-04-06T02:41:51;35;25;
57289;PMS5003;43523;53.022;-1.178;2023-04-06T02:42:53;34;29;
57289;PMS5003;43523;53.022;-1.178;2023-04-06T02:43:55;33;27;
57289;PMS5003;43523;53.022;-1.178;2023-04-06T02:44:58;31;28;
57289;PMS5003;43523;53.022;-1.178;2023-04-06T02:46:00;30;28;
57289;PMS5003;43523;53.022;-1.178;2023-04-06T02:47:02;29;26;
57289;PMS5003;43523;53.022;-1.178;2023-04-06T02:48:05;32;29;
57289;PMS5003;43523;53.022;-1.178;2023-04-06T02:49:08;35;29;
57289;PMS5003;43523;53.022;-1.178;2023-04-06T02:50:10;34;30;
57289;PMS5003;43523;53.022;-1.178;2023-04-06T02:51:13;37;36;
57289;PMS5003;43523;53.022;-1.178;2023-04-06T02:52:15;34;30;
57289;PMS5003;43523;53.022;-1.178;2023-04-06T02:53:17;34;30;
57289;PMS5003;43523;53.022;-1.178;2023-04-06T02:54:20;34;31;
57289;PMS5003;43523;53.022;-1.178;2023-04-06T02:55:23;30;27;
57289;PMS5003;43523;53.022;-1.178;2023-04-06T02:56:25;38;32;
57289;PMS5003;43523;53.022;-1.178;2023-04-06T02:57:27;28;25;
57289;PMS5003;43523;53.022;-1.178;2023-04-06T02:58:29;36;27;
57289;PMS5003;43523;53.022;-1.178;2023-04-06T02:59:31;32;27;
57289;PMS5003;43523;53.022;-1.178;2023-04-06T03:00:33;32;26;
57289;PMS5003;43523;53.022;-1.178;2023-04-06T03:01:35;31;28;
57289;PMS5003;43523;53.022;-1.178;2023-04-06T03:02:37;32;25;
57289;PMS5003;43523;53.022;-1.178;2023-04-06T03:03:40;31;28;
57289;PMS5003;43523;53.022;-1.178;2023-04-06T03:04:44;35;29;
57289;PMS5003;43523;53.022;-1.178;2023-04-06T03:05:46;34;30;
57289;PMS5003;43523;53.022;-1.178;2023-04-06T03:06:48;31;29;
57289;PMS5003;43523;53.022;-1.178;2023-04-06T03:07:50;32;29;
57289;PMS5003;43523;53.022;-1.178;2023-04-06T03:08:53;31;27;
57289;PMS5003;43523;53.022;-1.178;2023-04-06T03:09:55;25;24;
57289;PMS5003;43523;53.022;-1.178;2023-04-06T03:10:58;30;25;
57289;PMS5003;43523;53.022;-1.178;2023-04-06T03:12:00;23;23;
57289;PMS5003;43523;53.022;-1.178;2023-04-06T03:13:02;33;26;
57289;PMS5003;43523;53.022;-1.178;2023-04-06T03:14:05;34;28;
57289;PMS5003;43523;53.022;-1.178;2023-04-06T03:15:08;26;24;
57289;PMS5003;43523;53.022;-1.178;2023-04-06T03:16:12;29;25;
57289;PMS5003;43523;53.022;-1.178;2023-04-06T03:17:14;28;22;
57289;PMS5003;43523;53.022;-1.178;2023-04-06T03:18:17;33;26;
57289;PMS5003;43523;53.022;-1.178;2023-04-06T03:19:22;30;25;
57289;PMS5003;43523;53.022;-1.178;2023-04-06T03:20:24;23;21;
57289;PMS5003;43523;53.022;-1.178;2023-04-06T03:21:27;26;22;
57289;PMS5003;43523;53.022;-1.178;2023-04-06T03:22:29;30;27;
57289;PMS5003;43523;53.022;-1.178;2023-04-06T03:23:31;32;27;
57289;PMS5003;43523;53.022;-1.178;2023-04-06T03:24:33;29;26;
57289;PMS5003;43523;53.022;-1.178;2023-04-06T03:25:36;28;22;
57289;PMS5003;43523;53.022;-1.178;2023-04-06T03:26:38;21;19;
57289;PMS5003;43523;53.022;-1.178;2023-04-06T03:27:40;29;25;
57289;PMS5003;43523;53.022;-1.178;2023-04-06T03:28:43;28;22;
57289;PMS5003;43523;53.022;-1.178;2023-04-06T03:29:46;23;20;
57289;PMS5003;43523;53.022;-1.178;2023-04-06T03:30:49;23;20;
57289;PMS5003;43523;53.022;-1.178;2023-04-06T03:31:51;30;23;
57289;PMS5003;43523;53.022;-1.178;2023-04-06T03:32:53;22;19;
57289;PMS5003;43523;53.022;-1.178;2023-04-06T03:33:56;25;22;
57289;PMS5003;43523;53.022;-1.178;2023-04-06T03:34:58;24;22;
57289;PMS5003;43523;53.022;-1.178;2023-04-06T03:36:00;30;23;
57289;PMS5003;43523;53.022;-1.178;2023-04-06T03:37:03;27;24;
57289;PMS5003;43523;53.022;-1.178;2023-04-06T03:38:06;23;21;
57289;PMS5003;43523;53.022;-1.178;2023-04-06T03:39:08;25;22;
57289;PMS5003;43523;53.022;-1.178;2023-04-06T03:40:11;20;18;
57289;PMS5003;43523;53.022;-1.178;2023-04-06T03:41:13;25;19;
57289;PMS5003;43523;53.022;-1.178;2023-04-06T03:42:15;23;21;
57289;PMS5003;43523;53.022;-1.178;2023-04-06T03:43:18;26;23;
57289;PMS5003;43523;53.022;-1.178;2023-04-06T03:44:20;27;25;
57289;PMS5003;43523;53.022;-1.178;2023-04-06T03:45:22;22;20;
57289;PMS5003;43523;53.022;-1.178;2023-04-06T03:46:24;31;25;
57289;PMS5003;43523;53.022;-1.178;2023-04-06T03:47:26;27;23;
57289;PMS5003;43523;53.022;-1.178;2023-04-06T03:48:28;22;21;
57289;PMS5003;43523;53.022;-1.178;2023-04-06T03:49:30;26;25;
57289;PMS5003;43523;53.022;-1.178;2023-04-06T03:50:38;26;23;
57289;PMS5003;43523;53.022;-1.178;2023-04-06T03:51:41;24;20;
57289;PMS5003;43523;53.022;-1.178;2023-04-06T03:52:43;27;25;
57289;PMS5003;43523;53.022;-1.178;2023-04-06T03:53:45;27;23;
57289;PMS5003;43523;53.022;-1.178;2023-04-06T03:54:47;24;20;
57289;PMS5003;43523;53.022;-1.178;2023-04-06T03:55:50;27;22;
57289;PMS5003;43523;53.022;-1.178;2023-04-06T03:56:52;32;26;
57289;PMS5003;43523;53.022;-1.178;2023-04-06T03:57:54;26;20;
57289;PMS5003;43523;53.022;-1.178;2023-04-06T03:58:57;24;21;
57289;PMS5003;43523;53.022;-1.178;2023-04-06T03:59:59;23;22;
57289;PMS5003;43523;53.022;-1.178;2023-04-06T04:01:01;21;19;
57289;PMS5003;43523;53.022;-1.178;2023-04-06T04:02:03;25;19;
57289;PMS5003;43523;53.022;-1.178;2023-04-06T04:03:06;24;22;
57289;PMS5003;43523;53.022;-1.178;2023-04-06T04:04:08;23;20;
57289;PMS5003;43523;53.022;-1.178;2023-04-06T04:05:11;24;23;
57289;PMS5003;43523;53.022;-1.178;2023-04-06T04:06:13;20;18;
57289;PMS5003;43523;53.022;-1.178;2023-04-06T04:07:16;28;25;
57289;PMS5003;43523;53.022;-1.178;2023-04-06T04:08:19;27;25;
57289;PMS5003;43523;53.022;-1.178;2023-04-06T04:09:22;25;22;
57289;PMS5003;43523;53.022;-1.178;2023-04-06T04:10:24;30;27;
57289;PMS5003;43523;53.022;-1.178;2023-04-06T04:11:26;27;23;
57289;PMS5003;43523;53.022;-1.178;2023-04-06T04:12:28;23;23;
57289;PMS5003;43523;53.022;-1.178;2023-04-06T04:13:30;23;20;
57289;PMS5003;43523;53.022;-1.178;2023-04-06T04:14:32;29;23;
57289;PMS5003;43523;53.022;-1.178;2023-04-06T04:15:35;22;19;
57289;PMS5003;43523;53.022;-1.178;2023-04-06T04:16:37;26;24;
57289;PMS5003;43523;53.022;-1.178;2023-04-06T04:17:39;27;24;
57289;PMS5003;43523;53.022;-1.178;2023-04-06T04:18:41;19;19;
57289;PMS5003;43523;53.022;-1.178;2023-04-06T04:19:43;30;27;
57289;PMS5003;43523;53.022;-1.178;2023-04-06T04:20:46;19;18;
57289;PMS5003;43523;53.022;-1.178;2023-04-06T04:21:48;33;27;
57289;PMS5003;43523;53.022;-1.178;2023-04-06T04:22:51;23;20;
57289;PMS5003;43523;53.022;-1.178;2023-04-06T04:23:53;27;25;
57289;PMS5003;43523;53.022;-1.178;2023-04-06T04:24:55;24;21;
57289;PMS5003;43523;53.022;-1.178;2023-04-06T04:25:57;26;21;
57289;PMS5003;43523;53.022;-1.178;2023-04-06T04:26:59;27;26;
57289;PMS5003;43523;53.022;-1.178;2023-04-06T04:28:02;26;22;
57289;PMS5003;43523;53.022;-1.178;2023-04-06T04:29:05;26;23;
57289;PMS5003;43523;53.022;-1.178;2023-04-06T04:30:07;24;23;
57289;PMS5003;43523;53.022;-1.178;2023-04-06T04:31:10;23;20;
57289;PMS5003;43523;53.022;-1.178;2023-04-06T04:32:12;24;20;
57289;PMS5003;43523;53.022;-1.178;2023-04-06T04:33:15;22;19;
57289;PMS5003;43523;53.022;-1.178;2023-04-06T04:34:17;27;21;
57289;PMS5003;43523;53.022;-1.178;2023-04-06T04:35:20;25;20;
57289;PMS5003;43523;53.022;-1.178;2023-04-06T04:36:22;28;22;
57289;PMS5003;43523;53.022;-1.178;2023-04-06T04:37:25;21;19;
57289;PMS5003;43523;53.022;-1.178;2023-04-06T04:38:27;28;24;
57289;PMS5003;43523;53.022;-1.178;2023-04-06T04:39:29;24;21;
57289;PMS5003;43523;53.022;-1.178;2023-04-06T04:40:32;24;23;
57289;PMS5003;43523;53.022;-1.178;2023-04-06T04:41:34;21;19;
57289;PMS5003;43523;53.022;-1.178;2023-04-06T04:42:37;18;17;
57289;PMS5003;43523;53.022;-1.178;2023-04-06T04:43:39;23;20;
57289;PMS5003;43523;53.022;-1.178;2023-04-06T04:44:41;23;19;
57289;PMS5003;43523;53.022;-1.178;2023-04-06T04:45:43;24;21;
57289;PMS5003;43523;53.022;-1.178;2023-04-06T04:46:45;22;21;
57289;PMS5003;43523;53.022;-1.178;2023-04-06T04:47:47;28;25;
57289;PMS5003;43523;53.022;-1.178;2023-04-06T04:48:50;18;17;
57289;PMS5003;43523;53.022;-1.178;2023-04-06T04:49:52;21;20;
57289;PMS5003;43523;53.022;-1.178;2023-04-06T04:50:55;23;20;
57289;PMS5003;43523;53.022;-1.178;2023-04-06T04:51:57;18;17;
57289;PMS5003;43523;53.022;-1.178;2023-04-06T04:52:59;21;20;
57289;PMS5003;43523;53.022;-1.178;2023-04-06T04:54:02;23;21;
57289;PMS5003;43523;53.022;-1.178;2023-04-06T04:55:05;25;22;
57289;PMS5003;43523;53.022;-1.178;2023-04-06T04:56:08;17;17;
57289;PMS5003;43523;53.022;-1.178;2023-04-06T04:57:10;22;22;
57289;PMS5003;43523;53.022;-1.178;2023-04-06T04:58:12;24;20;
57289;PMS5003;43523;53.022;-1.178;2023-04-06T04:59:15;22;21;
57289;PMS5003;43523;53.022;-1.178;2023-04-06T05:00:17;24;21;
57289;PMS5003;43523;53.022;-1.178;2023-04-06T05:01:20;21;18;
57289;PMS5003;43523;53.022;-1.178;2023-04-06T05:02:22;22;21;
57289;PMS5003;43523;53.022;-1.178;2023-04-06T05:03:25;19;18;
57289;PMS5003;43523;53.022;-1.178;2023-04-06T05:04:28;22;19;
57289;PMS5003;43523;53.022;-1.178;2023-04-06T05:05:30;24;20;
57289;PMS5003;43523;53.022;-1.178;2023-04-06T05:06:32;21;19;
57289;PMS5003;43523;53.022;-1.178;2023-04-06T05:07:35;22;19;
57289;PMS5003;43523;53.022;-1.178;2023-04-06T05:08:37;26;21;
57289;PMS5003;43523;53.022;-1.178;2023-04-06T05:09:39;28;23;
57289;PMS5003;43523;53.022;-1.178;2023-04-06T05:10:41;26;23;
57289;PMS5003;43523;53.022;-1.178;2023-04-06T05:11:45;19;19;
57289;PMS5003;43523;53.022;-1.178;2023-04-06T05:12:48;22;19;
57289;PMS5003;43523;53.022;-1.178;2023-04-06T05:13:50;22;19;
57289;PMS5003;43523;53.022;-1.178;2023-04-06T05:14:52;25;24;
57289;PMS5003;43523;53.022;-1.178;2023-04-06T05:15:54;19;19;
57289;PMS5003;43523;53.022;-1.178;2023-04-06T05:16:57;24;23;
57289;PMS5003;43523;53.022;-1.178;2023-04-06T05:17:59;21;19;
57289;PMS5003;43523;53.022;-1.178;2023-04-06T05:19:01;19;19;
57289;PMS5003;43523;53.022;-1.178;2023-04-06T05:20:04;20;19;
57289;PMS5003;43523;53.022;-1.178;2023-04-06T05:21:07;24;21;
57289;PMS5003;43523;53.022;-1.178;2023-04-06T05:22:10;25;22;
57289;PMS5003;43523;53.022;-1.178;2023-04-06T05:23:12;24;21;
57289;PMS5003;43523;53.022;-1.178;2023-04-06T05:24:14;29;25;
57289;PMS5003;43523;53.022;-1.178;2023-04-06T05:25:17;29;23;
57289;PMS5003;43523;53.022;-1.178;2023-04-06T05:26:19;24;21;
57289;PMS5003;43523;53.022;-1.178;2023-04-06T05:27:21;22;21;
57289;PMS5003;43523;53.022;-1.178;2023-04-06T05:28:24;24;23;
57289;PMS5003;43523;53.022;-1.178;2023-04-06T05:29:26;24;21;
57289;PMS5003;43523;53.022;-1.178;2023-04-06T05:30:28;27;23;
57289;PMS5003;43523;53.022;-1.178;2023-04-06T05:31:30;25;23;
57289;PMS5003;43523;53.022;-1.178;2023-04-06T05:32:33;22;19;
57289;PMS5003;43523;53.022;-1.178;2023-04-06T05:33:35;30;24;
57289;PMS5003;43523;53.022;-1.178;2023-04-06T05:34:37;23;22;
57289;PMS5003;43523;53.022;-1.178;2023-04-06T05:35:39;25;20;
57289;PMS5003;43523;53.022;-1.178;2023-04-06T05:36:43;26;21;
57289;PMS5003;43523;53.022;-1.178;2023-04-06T05:37:46;27;21;
57289;PMS5003;43523;53.022;-1.178;2023-04-06T05:38:48;29;24;
57289;PMS5003;43523;53.022;-1.178;2023-04-06T05:39:50;28;23;
57289;PMS5003;43523;53.022;-1.178;2023-04-06T05:40:52;20;20;
57289;PMS5003;43523;53.022;-1.178;2023-04-06T05:41:54;21;21;
57289;PMS5003;43523;53.022;-1.178;2023-04-06T05:42:57;21;19;
57289;PMS5003;43523;53.022;-1.178;2023-04-06T05:44:00;23;22;
57289;PMS5003;43523;53.022;-1.178;2023-04-06T05:45:02;30;27;
57289;PMS5003;43523;53.022;-1.178;2023-04-06T05:46:07;28;25;
57289;PMS5003;43523;53.022;-1.178;2023-04-06T05:47:09;28;22;
57289;PMS5003;43523;53.022;-1.178;2023-04-06T05:48:11;26;22;
57289;PMS5003;43523;53.022;-1.178;2023-04-06T05:49:14;22;21;
57289;PMS5003;43523;53.022;-1.178;2023-04-06T05:50:16;25;24;
57289;PMS5003;43523;53.022;-1.178;2023-04-06T05:51:19;22;20;
57289;PMS5003;43523;53.022;-1.178;2023-04-06T05:52:21;26;24;
57289;PMS5003;43523;53.022;-1.178;2023-04-06T05:53:23;24;24;
57289;PMS5003;43523;53.022;-1.178;2023-04-06T05:54:25;24;22;
57289;PMS5003;43523;53.022;-1.178;2023-04-06T05:55:27;24;19;
57289;PMS5003;43523;53.022;-1.178;2023-04-06T05:56:30;23;19;
57289;PMS5003;43523;53.022;-1.178;2023-04-06T05:57:32;27;25;
57289;PMS5003;43523;53.022;-1.178;2023-04-06T05:58:34;25;24;
57289;PMS5003;43523;53.022;-1.178;2023-04-06T05:59:37;23;20;
57289;PMS5003;43523;53.022;-1.178;2023-04-06T06:00:39;26;23;
57289;PMS5003;43523;53.022;-1.178;2023-04-06T06:01:43;25;22;
57289;PMS5003;43523;53.022;-1.178;2023-04-06T06:02:45;23;21;
57289;PMS5003;43523;53.022;-1.178;2023-04-06T06:03:48;23;20;
57289;PMS5003;43523;53.022;-1.178;2023-04-06T06:04:50;30;22;
57289;PMS5003;43523;53.022;-1.178;2023-04-06T06:05:53;23;21;
57289;PMS5003;43523;53.022;-1.178;2023-04-06T06:06:55;20;18;
57289;PMS5003;43523;53.022;-1.178;2023-04-06T06:07:57;25;20;
57289;PMS5003;43523;53.022;-1.178;2023-04-06T06:09:00;24;23;
57289;PMS5003;43523;53.022;-1.178;2023-04-06T06:10:02;21;19;
57289;PMS5003;43523;53.022;-1.178;2023-04-06T06:11:04;24;20;
57289;PMS5003;43523;53.022;-1.178;2023-04-06T06:12:07;30;25;
57289;PMS5003;43523;53.022;-1.178;2023-04-06T06:13:10;22;20;
57289;PMS5003;43523;53.022;-1.178;2023-04-06T06:14:12;25;22;
57289;PMS5003;43523;53.022;-1.178;2023-04-06T06:15:14;20;20;
57289;PMS5003;43523;53.022;-1.178;2023-04-06T06:16:17;26;23;
57289;PMS5003;43523;53.022;-1.178;2023-04-06T06:17:20;24;20;
57289;PMS5003;43523;53.022;-1.178;2023-04-06T06:18:22;21;21;
57289;PMS5003;43523;53.022;-1.178;2023-04-06T06:19:25;19;18;
57289;PMS5003;43523;53.022;-1.178;2023-04-06T06:20:27;21;18;
57289;PMS5003;43523;53.022;-1.178;2023-04-06T06:21:30;22;22;
57289;PMS5003;43523;53.022;-1.178;2023-04-06T06:22:32;21;20;
57289;PMS5003;43523;53.022;-1.178;2023-04-06T06:23:34;26;20;
57289;PMS5003;43523;53.022;-1.178;2023-04-06T06:24:36;23;19;
57289;PMS5003;43523;53.022;-1.178;2023-04-06T06:25:39;22;20;
57289;PMS5003;43523;53.022;-1.178;2023-04-06T06:26:41;22;19;
57289;PMS5003;43523;53.022;-1.178;2023-04-06T06:27:44;19;19;
57289;PMS5003;43523;53.022;-1.178;2023-04-06T06:28:47;19;19;
57289;PMS5003;43523;53.022;-1.178;2023-04-06T06:29:49;20;18;
57289;PMS5003;43523;53.022;-1.178;2023-04-06T06:30:51;24;19;
57289;PMS5003;43523;53.022;-1.178;2023-04-06T06:31:54;27;23;
57289;PMS5003;43523;53.022;-1.178;2023-04-06T06:32:56;26;21;
57289;PMS5003;43523;53.022;-1.178;2023-04-06T06:33:58;26;20;
57289;PMS5003;43523;53.022;-1.178;2023-04-06T06:35:00;22;19;
57289;PMS5003;43523;53.022;-1.178;2023-04-06T06:36:02;22;19;
57289;PMS5003;43523;53.022;-1.178;2023-04-06T06:37:05;26;24;
57289;PMS5003;43523;53.022;-1.178;2023-04-06T06:38:08;18;15;
57289;PMS5003;43523;53.022;-1.178;2023-04-06T06:39:11;21;20;
57289;PMS5003;43523;53.022;-1.178;2023-04-06T06:40:13;20;20;
57289;PMS5003;43523;53.022;-1.178;2023-04-06T06:41:16;24;23;
57289;PMS5003;43523;53.022;-1.178;2023-04-06T06:42:18;19;17;
57289;PMS5003;43523;53.022;-1.178;2023-04-06T06:43:20;20;18;
57289;PMS5003;43523;53.022;-1.178;2023-04-06T06:44:23;24;18;
57289;PMS5003;43523;53.022;-1.178;2023-04-06T06:45:25;23;20;
57289;PMS5003;43523;53.022;-1.178;2023-04-06T06:46:27;26;18;
57289;PMS5003;43523;53.022;-1.178;2023-04-06T06:47:29;22;20;